sensor_id;sensor_type;location;lat;lon;timestamp;pressure;altitude;pressure_sealevel;temperature;humidity
81181;BME280;70650;51.408;7.132;2023-09-12T00:01:05;100231.78;;;19.78;82.69
81181;BME280;70650;51.408;7.132;2023-09-12T00:03:31;100230.41;;;19.74;83.03
81181;BME280;70650;51.408;7.132;2023-09-12T00:05:58;100242.50;;;19.98;81.95
81181;BME280;70650;51.408;7.132;2023-09-12T00:08:24;100249.78;;;20.15;81.11
81181;BME280;70650;51.408;7.132;2023-09-12T00:11:06;100237.91;;;20.08;81.18
81181;BME280;70650;51.408;7.132;2023-09-12T00:13:35;100236.81;;;20.01;81.40
81181;BME280;70650;51.408;7.132;2023-09-12T00:16:01;100239.34;;;20.02;81.77
81181;BME280;70650;51.408;7.132;2023-09-12T00:18:26;100238.81;;;19.99;81.95
81181;BME280;70650;51.408;7.132;2023-09-12T00:20:52;100221.72;;;20.00;81.21
81181;BME280;70650;51.408;7.132;2023-09-12T00:23:20;100231.63;;;19.90;81.94
81181;BME280;70650;51.408;7.132;2023-09-12T00:25:46;100218.38;;;19.78;82.06
81181;BME280;70650;51.408;7.132;2023-09-12T00:28:11;100202.19;;;19.70;82.70
81181;BME280;70650;51.408;7.132;2023-09-12T00:30:36;100203.59;;;19.65;82.70
81181;BME280;70650;51.408;7.132;2023-09-12T00:33:02;100209.53;;;19.58;82.87
81181;BME280;70650;51.408;7.132;2023-09-12T00:35:28;100221.81;;;19.61;82.94
81181;BME280;70650;51.408;7.132;2023-09-12T00:37:54;100223.19;;;19.55;83.01
81181;BME280;70650;51.408;7.132;2023-09-12T00:40:20;100228.00;;;19.71;82.36
81181;BME280;70650;51.408;7.132;2023-09-12T00:42:47;100243.63;;;19.95;80.55
81181;BME280;70650;51.408;7.132;2023-09-12T00:45:12;100269.28;;;20.07;80.28
81181;BME280;70650;51.408;7.132;2023-09-12T00:47:39;100286.78;;;20.11;79.79
81181;BME280;70650;51.408;7.132;2023-09-12T00:50:05;100271.28;;;20.05;79.71
81181;BME280;70650;51.408;7.132;2023-09-12T00:52:33;100268.19;;;19.91;80.32
81181;BME280;70650;51.408;7.132;2023-09-12T00:54:59;100263.69;;;19.91;80.72
81181;BME280;70650;51.408;7.132;2023-09-12T00:57:25;100239.97;;;19.87;80.86
81181;BME280;70650;51.408;7.132;2023-09-12T00:59:51;100213.84;;;19.79;81.13
81181;BME280;70650;51.408;7.132;2023-09-12T01:02:19;100205.53;;;19.82;81.41
81181;BME280;70650;51.408;7.132;2023-09-12T01:04:44;100183.09;;;19.73;81.51
81181;BME280;70650;51.408;7.132;2023-09-12T01:07:10;100156.31;;;19.54;82.06
81181;BME280;70650;51.408;7.132;2023-09-12T01:09:36;100149.13;;;19.45;82.69
81181;BME280;70650;51.408;7.132;2023-09-12T01:12:01;100135.03;;;19.33;83.02
81181;BME280;70650;51.408;7.132;2023-09-12T01:14:30;100142.50;;;19.39;82.96
81181;BME280;70650;51.408;7.132;2023-09-12T01:17:10;100142.66;;;19.28;82.44
81181;BME280;70650;51.408;7.132;2023-09-12T01:19:37;100177.66;;;19.46;81.96
81181;BME280;70650;51.408;7.132;2023-09-12T01:27:23;100200.50;;;19.59;81.25
81181;BME280;70650;51.408;7.132;2023-09-12T01:29:54;100209.78;;;19.55;81.07
81181;BME280;70650;51.408;7.132;2023-09-12T01:32:21;100194.69;;;19.45;81.73
81181;BME280;70650;51.408;7.132;2023-09-12T01:34:46;100208.81;;;19.47;81.41
81181;BME280;70650;51.408;7.132;2023-09-12T01:37:12;100206.69;;;19.50;81.39
81181;BME280;70650;51.408;7.132;2023-09-12T01:39:39;100185.69;;;19.46;81.08
81181;BME280;70650;51.408;7.132;2023-09-12T01:42:11;100201.50;;;19.58;81.13
81181;BME280;70650;51.408;7.132;2023-09-12T01:44:41;100199.47;;;19.51;81.36
81181;BME280;70650;51.408;7.132;2023-09-12T01:47:10;100196.25;;;19.57;80.81
81181;BME280;70650;51.408;7.132;2023-09-12T01:49:39;100181.00;;;19.57;80.60
81181;BME280;70650;51.408;7.132;2023-09-12T01:52:09;100180.88;;;19.49;80.67
81181;BME280;70650;51.408;7.132;2023-09-12T01:54:36;100179.59;;;19.44;81.47
81181;BME280;70650;51.408;7.132;2023-09-12T01:57:02;100180.06;;;19.29;81.80
81181;BME280;70650;51.408;7.132;2023-09-12T01:59:28;100193.31;;;19.41;81.52
81181;BME280;70650;51.408;7.132;2023-09-12T02:01:54;100195.56;;;19.36;81.44
81181;BME280;70650;51.408;7.132;2023-09-12T02:04:21;100217.97;;;19.54;80.76
81181;BME280;70650;51.408;7.132;2023-09-12T02:06:46;100235.59;;;19.56;80.67
81181;BME280;70650;51.408;7.132;2023-09-12T02:09:12;100233.91;;;19.55;81.06
81181;BME280;70650;51.408;7.132;2023-09-12T02:11:38;100207.53;;;19.51;81.16
81181;BME280;70650;51.408;7.132;2023-09-12T02:14:04;100200.47;;;19.50;81.84
81181;BME280;70650;51.408;7.132;2023-09-12T02:16:31;100184.44;;;19.40;82.07
81181;BME280;70650;51.408;7.132;2023-09-12T02:18:56;100184.28;;;19.32;82.66
81181;BME280;70650;51.408;7.132;2023-09-12T02:21:22;100184.44;;;19.30;83.19
81181;BME280;70650;51.408;7.132;2023-09-12T02:23:47;100189.38;;;19.25;83.40
81181;BME280;70650;51.408;7.132;2023-09-12T02:26:12;100196.44;;;19.26;83.61
81181;BME280;70650;51.408;7.132;2023-09-12T02:28:38;100194.59;;;19.27;83.45
81181;BME280;70650;51.408;7.132;2023-09-12T02:31:03;100210.13;;;19.23;83.63
81181;BME280;70650;51.408;7.132;2023-09-12T02:33:29;100216.19;;;19.25;83.83
81181;BME280;70650;51.408;7.132;2023-09-12T02:35:55;100214.75;;;19.21;84.06
81181;BME280;70650;51.408;7.132;2023-09-12T02:38:20;100215.88;;;19.28;84.02
81181;BME280;70650;51.408;7.132;2023-09-12T02:40:46;100199.41;;;19.23;83.42
81181;BME280;70650;51.408;7.132;2023-09-12T02:43:11;100199.81;;;19.19;83.60
81181;BME280;70650;51.408;7.132;2023-09-12T02:45:36;100217.88;;;19.26;83.60
81181;BME280;70650;51.408;7.132;2023-09-12T02:48:02;100208.56;;;19.21;83.71
81181;BME280;70650;51.408;7.132;2023-09-12T02:50:27;100216.88;;;19.27;83.60
81181;BME280;70650;51.408;7.132;2023-09-12T02:52:53;100207.72;;;19.30;83.51
81181;BME280;70650;51.408;7.132;2023-09-12T02:55:19;100219.81;;;19.34;83.43
81181;BME280;70650;51.408;7.132;2023-09-12T02:57:44;100212.66;;;19.35;83.16
81181;BME280;70650;51.408;7.132;2023-09-12T03:00:10;100218.13;;;19.43;82.84
81181;BME280;70650;51.408;7.132;2023-09-12T03:02:36;100222.25;;;19.47;83.01
81181;BME280;70650;51.408;7.132;2023-09-12T03:05:02;100218.00;;;19.44;82.95
81181;BME280;70650;51.408;7.132;2023-09-12T03:07:29;100213.06;;;19.40;83.01
81181;BME280;70650;51.408;7.132;2023-09-12T03:09:54;100213.94;;;19.40;82.81
81181;BME280;70650;51.408;7.132;2023-09-12T03:12:19;100234.09;;;19.35;83.31
81181;BME280;70650;51.408;7.132;2023-09-12T03:14:45;100224.91;;;19.37;83.12
81181;BME280;70650;51.408;7.132;2023-09-12T03:17:11;100220.25;;;19.39;83.21
81181;BME280;70650;51.408;7.132;2023-09-12T03:19:36;100203.19;;;19.30;83.09
81181;BME280;70650;51.408;7.132;2023-09-12T03:22:02;100195.00;;;19.22;84.08
81181;BME280;70650;51.408;7.132;2023-09-12T03:24:27;100174.13;;;19.16;84.22
81181;BME280;70650;51.408;7.132;2023-09-12T03:26:56;100173.44;;;19.14;84.21
81181;BME280;70650;51.408;7.132;2023-09-12T03:29:21;100164.41;;;19.05;84.41
81181;BME280;70650;51.408;7.132;2023-09-12T03:31:46;100154.84;;;19.03;84.68
81181;BME280;70650;51.408;7.132;2023-09-12T03:34:13;100152.56;;;18.98;84.95
81181;BME280;70650;51.408;7.132;2023-09-12T03:36:39;100155.25;;;18.98;84.92
81181;BME280;70650;51.408;7.132;2023-09-12T03:39:05;100158.91;;;18.97;85.02
81181;BME280;70650;51.408;7.132;2023-09-12T03:41:35;100151.88;;;19.06;85.26
81181;BME280;70650;51.408;7.132;2023-09-12T03:44:00;100138.31;;;19.17;84.30
81181;BME280;70650;51.408;7.132;2023-09-12T03:46:25;100145.91;;;19.22;82.98
81181;BME280;70650;51.408;7.132;2023-09-12T03:48:51;100134.34;;;19.21;82.80
81181;BME280;70650;51.408;7.132;2023-09-12T03:51:16;100145.38;;;19.18;82.53
81181;BME280;70650;51.408;7.132;2023-09-12T03:53:41;100144.81;;;19.15;82.80
81181;BME280;70650;51.408;7.132;2023-09-12T03:56:07;100136.19;;;19.11;82.84
81181;BME280;70650;51.408;7.132;2023-09-12T03:58:39;100131.81;;;19.10;83.00
81181;BME280;70650;51.408;7.132;2023-09-12T04:01:06;100133.50;;;19.11;82.70
81181;BME280;70650;51.408;7.132;2023-09-12T04:03:31;100129.88;;;19.12;82.39
81181;BME280;70650;51.408;7.132;2023-09-12T04:05:56;100130.56;;;19.14;82.24
81181;BME280;70650;51.408;7.132;2023-09-12T04:08:23;100128.56;;;19.16;82.44
81181;BME280;70650;51.408;7.132;2023-09-12T04:10:48;100119.28;;;19.11;82.26
81181;BME280;70650;51.408;7.132;2023-09-12T04:13:13;100111.22;;;19.11;82.67
81181;BME280;70650;51.408;7.132;2023-09-12T04:15:39;100108.28;;;19.04;82.50
81181;BME280;70650;51.408;7.132;2023-09-12T04:18:05;100101.81;;;18.97;83.20
81181;BME280;70650;51.408;7.132;2023-09-12T04:20:30;100103.06;;;18.93;83.07
81181;BME280;70650;51.408;7.132;2023-09-12T04:22:55;100100.97;;;18.87;82.73
81181;BME280;70650;51.408;7.132;2023-09-12T04:25:21;100109.44;;;18.92;83.13
81181;BME280;70650;51.408;7.132;2023-09-12T04:27:46;100111.69;;;18.87;83.56
81181;BME280;70650;51.408;7.132;2023-09-12T04:30:12;100128.31;;;18.80;83.52
81181;BME280;70650;51.408;7.132;2023-09-12T04:32:37;100123.69;;;18.73;84.39
81181;BME280;70650;51.408;7.132;2023-09-12T04:35:02;100119.97;;;18.64;84.24
81181;BME280;70650;51.408;7.132;2023-09-12T04:37:28;100124.09;;;18.68;84.46
81181;BME280;70650;51.408;7.132;2023-09-12T04:39:54;100106.59;;;18.64;84.28
81181;BME280;70650;51.408;7.132;2023-09-12T04:42:19;100115.06;;;18.69;83.88
81181;BME280;70650;51.408;7.132;2023-09-12T04:44:44;100117.88;;;18.77;83.35
81181;BME280;70650;51.408;7.132;2023-09-12T04:47:10;100127.91;;;18.85;83.45
81181;BME280;70650;51.408;7.132;2023-09-12T04:49:35;100131.44;;;18.86;82.68
81181;BME280;70650;51.408;7.132;2023-09-12T04:52:02;100122.81;;;18.92;82.36
81181;BME280;70650;51.408;7.132;2023-09-12T04:54:27;100134.53;;;19.00;82.19
81181;BME280;70650;51.408;7.132;2023-09-12T04:56:53;100138.75;;;19.03;82.05
81181;BME280;70650;51.408;7.132;2023-09-12T04:59:18;100127.75;;;18.96;81.60
81181;BME280;70650;51.408;7.132;2023-09-12T05:01:45;100137.59;;;19.05;81.51
81181;BME280;70650;51.408;7.132;2023-09-12T05:04:11;100128.03;;;19.03;80.66
81181;BME280;70650;51.408;7.132;2023-09-12T05:06:36;100124.50;;;19.02;81.05
81181;BME280;70650;51.408;7.132;2023-09-12T05:09:02;100137.59;;;19.15;80.58
81181;BME280;70650;51.408;7.132;2023-09-12T05:11:28;100145.66;;;19.15;80.47
81181;BME280;70650;51.408;7.132;2023-09-12T05:13:53;100148.75;;;19.20;80.92
81181;BME280;70650;51.408;7.132;2023-09-12T05:16:19;100149.16;;;19.25;80.58
81181;BME280;70650;51.408;7.132;2023-09-12T05:18:45;100150.69;;;19.28;79.99
81181;BME280;70650;51.408;7.132;2023-09-12T05:21:10;100151.97;;;19.33;80.56
81181;BME280;70650;51.408;7.132;2023-09-12T05:23:37;100165.75;;;19.58;79.10
81181;BME280;70650;51.408;7.132;2023-09-12T05:26:02;100173.94;;;19.56;79.06
81181;BME280;70650;51.408;7.132;2023-09-12T05:28:28;100132.91;;;19.37;80.21
81181;BME280;70650;51.408;7.132;2023-09-12T05:30:53;100102.91;;;19.23;84.48
81181;BME280;70650;51.408;7.132;2023-09-12T05:33:19;100107.59;;;18.92;85.46
81181;BME280;70650;51.408;7.132;2023-09-12T05:35:45;100118.75;;;18.78;87.92
81181;BME280;70650;51.408;7.132;2023-09-12T05:38:11;100139.47;;;18.76;87.73
81181;BME280;70650;51.408;7.132;2023-09-12T05:40:36;100152.16;;;18.74;87.75
81181;BME280;70650;51.408;7.132;2023-09-12T05:43:02;100133.34;;;18.64;87.02
81181;BME280;70650;51.408;7.132;2023-09-12T05:45:28;100137.31;;;18.50;87.41
81181;BME280;70650;51.408;7.132;2023-09-12T05:47:56;100146.44;;;18.48;89.33
81181;BME280;70650;51.408;7.132;2023-09-12T05:50:21;100168.03;;;18.56;89.11
81181;BME280;70650;51.408;7.132;2023-09-12T05:52:46;100178.44;;;18.59;89.31
81181;BME280;70650;51.408;7.132;2023-09-12T05:55:12;100189.38;;;18.67;89.48
81181;BME280;70650;51.408;7.132;2023-09-12T05:57:37;100179.94;;;18.73;88.88
81181;BME280;70650;51.408;7.132;2023-09-12T06:00:03;100177.81;;;18.76;88.62
81181;BME280;70650;51.408;7.132;2023-09-12T06:02:35;100186.28;;;18.91;88.08
81181;BME280;70650;51.408;7.132;2023-09-12T06:05:00;100181.34;;;18.87;86.87
81181;BME280;70650;51.408;7.132;2023-09-12T06:07:27;100185.28;;;18.92;86.67
81181;BME280;70650;51.408;7.132;2023-09-12T06:09:52;100200.94;;;18.97;86.22
81181;BME280;70650;51.408;7.132;2023-09-12T06:12:17;100198.53;;;19.03;86.56
81181;BME280;70650;51.408;7.132;2023-09-12T06:14:45;100199.38;;;19.04;86.41
81181;BME280;70650;51.408;7.132;2023-09-12T06:17:11;100216.03;;;19.08;86.52
81181;BME280;70650;51.408;7.132;2023-09-12T06:19:37;100210.13;;;19.14;86.57
81181;BME280;70650;51.408;7.132;2023-09-12T06:22:04;100215.63;;;19.02;87.60
81181;BME280;70650;51.408;7.132;2023-09-12T06:24:30;100235.22;;;18.84;87.75
81181;BME280;70650;51.408;7.132;2023-09-12T06:26:55;100288.94;;;19.11;84.93
81181;BME280;70650;51.408;7.132;2023-09-12T06:29:22;100307.41;;;18.95;86.40
81181;BME280;70650;51.408;7.132;2023-09-12T06:31:47;100301.41;;;18.72;86.01
81181;BME280;70650;51.408;7.132;2023-09-12T06:34:13;100303.25;;;18.71;86.99
81181;BME280;70650;51.408;7.132;2023-09-12T06:36:39;100306.09;;;18.79;86.38
81181;BME280;70650;51.408;7.132;2023-09-12T06:39:06;100249.56;;;18.83;87.05
81181;BME280;70650;51.408;7.132;2023-09-12T06:41:32;100192.34;;;18.84;87.54
81181;BME280;70650;51.408;7.132;2023-09-12T06:44:00;100232.81;;;18.90;89.22
81181;BME280;70650;51.408;7.132;2023-09-12T06:46:28;100261.44;;;18.90;85.60
81181;BME280;70650;51.408;7.132;2023-09-12T06:48:53;100285.66;;;18.88;85.83
81181;BME280;70650;51.408;7.132;2023-09-12T06:51:23;100277.06;;;18.85;86.70
81181;BME280;70650;51.408;7.132;2023-09-12T06:53:52;100258.44;;;18.73;88.04
81181;BME280;70650;51.408;7.132;2023-09-12T06:56:17;100232.00;;;18.59;89.80
81181;BME280;70650;51.408;7.132;2023-09-12T06:58:42;100246.78;;;18.44;91.65
81181;BME280;70650;51.408;7.132;2023-09-12T07:01:08;100263.28;;;18.59;90.39
81181;BME280;70650;51.408;7.132;2023-09-12T07:03:34;100260.31;;;18.52;90.54
81181;BME280;70650;51.408;7.132;2023-09-12T07:06:02;100234.78;;;18.48;91.00
81181;BME280;70650;51.408;7.132;2023-09-12T07:08:30;100244.00;;;18.55;91.38
81181;BME280;70650;51.408;7.132;2023-09-12T07:10:56;100234.34;;;18.33;92.11
81181;BME280;70650;51.408;7.132;2023-09-12T07:13:23;100228.44;;;18.49;91.93
81181;BME280;70650;51.408;7.132;2023-09-12T07:15:52;100203.72;;;18.66;91.64
81181;BME280;70650;51.408;7.132;2023-09-12T07:18:18;100198.69;;;18.73;92.14
81181;BME280;70650;51.408;7.132;2023-09-12T07:20:44;100207.97;;;18.69;91.34
81181;BME280;70650;51.408;7.132;2023-09-12T07:23:12;100191.13;;;18.57;90.79
81181;BME280;70650;51.408;7.132;2023-09-12T07:25:38;100196.94;;;18.62;91.45
81181;BME280;70650;51.408;7.132;2023-09-12T07:28:05;100212.59;;;18.67;90.19
81181;BME280;70650;51.408;7.132;2023-09-12T07:30:30;100224.47;;;18.74;91.19
81181;BME280;70650;51.408;7.132;2023-09-12T07:32:55;100205.31;;;18.78;90.92
81181;BME280;70650;51.408;7.132;2023-09-12T07:35:21;100198.56;;;18.84;90.98
81181;BME280;70650;51.408;7.132;2023-09-12T07:37:51;100205.72;;;18.93;92.05
81181;BME280;70650;51.408;7.132;2023-09-12T07:40:17;100219.72;;;19.06;90.44
81181;BME280;70650;51.408;7.132;2023-09-12T07:42:42;100209.84;;;19.07;89.25
81181;BME280;70650;51.408;7.132;2023-09-12T07:45:08;100212.94;;;19.12;89.55
81181;BME280;70650;51.408;7.132;2023-09-12T07:47:34;100210.41;;;19.20;89.54
81181;BME280;70650;51.408;7.132;2023-09-12T07:50:00;100216.03;;;19.37;88.86
81181;BME280;70650;51.408;7.132;2023-09-12T07:52:28;100208.09;;;19.45;88.54
81181;BME280;70650;51.408;7.132;2023-09-12T07:54:59;100204.72;;;19.62;89.21
81181;BME280;70650;51.408;7.132;2023-09-12T07:57:25;100209.31;;;19.89;89.01
81181;BME280;70650;51.408;7.132;2023-09-12T07:59:51;100201.25;;;19.99;86.08
81181;BME280;70650;51.408;7.132;2023-09-12T08:02:17;100203.75;;;20.10;87.88
81181;BME280;70650;51.408;7.132;2023-09-12T08:04:44;100202.47;;;20.14;87.05
81181;BME280;70650;51.408;7.132;2023-09-12T08:07:09;100211.38;;;20.05;86.12
81181;BME280;70650;51.408;7.132;2023-09-12T08:09:54;100208.63;;;19.87;85.93
81181;BME280;70650;51.408;7.132;2023-09-12T08:12:21;100212.31;;;19.76;87.01
81181;BME280;70650;51.408;7.132;2023-09-12T08:14:48;100213.19;;;19.67;87.66
81181;BME280;70650;51.408;7.132;2023-09-12T08:17:14;100208.41;;;19.61;87.81
81181;BME280;70650;51.408;7.132;2023-09-12T08:19:39;100209.66;;;19.57;88.22
81181;BME280;70650;51.408;7.132;2023-09-12T08:22:06;100214.59;;;19.52;87.30
81181;BME280;70650;51.408;7.132;2023-09-12T08:24:34;100211.94;;;19.52;87.49
81181;BME280;70650;51.408;7.132;2023-09-12T08:27:02;100214.31;;;19.55;87.56
81181;BME280;70650;51.408;7.132;2023-09-12T08:29:28;100206.56;;;19.52;87.10
81181;BME280;70650;51.408;7.132;2023-09-12T08:31:53;100210.94;;;19.53;86.43
81181;BME280;70650;51.408;7.132;2023-09-12T08:34:20;100217.00;;;19.55;87.18
81181;BME280;70650;51.408;7.132;2023-09-12T08:36:45;100222.97;;;19.58;87.14
81181;BME280;70650;51.408;7.132;2023-09-12T08:39:14;100232.38;;;19.63;87.13
81181;BME280;70650;51.408;7.132;2023-09-12T08:41:41;100236.47;;;19.57;87.70
81181;BME280;70650;51.408;7.132;2023-09-12T08:44:07;100247.34;;;19.55;88.26
81181;BME280;70650;51.408;7.132;2023-09-12T08:46:32;100246.78;;;19.52;88.28
81181;BME280;70650;51.408;7.132;2023-09-12T08:48:58;100251.00;;;19.54;88.87
81181;BME280;70650;51.408;7.132;2023-09-12T08:51:24;100249.31;;;19.53;88.79
81181;BME280;70650;51.408;7.132;2023-09-12T08:53:51;100240.84;;;19.58;88.96
81181;BME280;70650;51.408;7.132;2023-09-12T08:56:18;100256.69;;;19.61;89.65
81181;BME280;70650;51.408;7.132;2023-09-12T08:58:44;100244.00;;;19.63;89.79
81181;BME280;70650;51.408;7.132;2023-09-12T09:01:13;100246.91;;;19.79;90.10
81181;BME280;70650;51.408;7.132;2023-09-12T09:03:39;100246.91;;;19.79;90.15
81181;BME280;70650;51.408;7.132;2023-09-12T09:06:11;100244.94;;;19.81;90.29
81181;BME280;70650;51.408;7.132;2023-09-12T09:08:39;100242.94;;;19.93;88.93
81181;BME280;70650;51.408;7.132;2023-09-12T09:11:04;100250.06;;;20.12;87.19
81181;BME280;70650;51.408;7.132;2023-09-12T09:13:32;100240.97;;;20.23;87.33
81181;BME280;70650;51.408;7.132;2023-09-12T09:16:13;100247.69;;;20.46;86.57
81181;BME280;70650;51.408;7.132;2023-09-12T09:19:02;100248.81;;;20.44;85.15
81181;BME280;70650;51.408;7.132;2023-09-12T09:21:31;100244.63;;;20.31;85.30
81181;BME280;70650;51.408;7.132;2023-09-12T09:24:06;100252.97;;;20.28;84.51
81181;BME280;70650;51.408;7.132;2023-09-12T09:26:54;100259.56;;;20.44;84.29
81181;BME280;70650;51.408;7.132;2023-09-12T09:29:26;100266.03;;;20.51;84.02
81181;BME280;70650;51.408;7.132;2023-09-12T09:31:57;100270.22;;;20.63;83.32
81181;BME280;70650;51.408;7.132;2023-09-12T09:34:23;100278.63;;;20.78;82.67
81181;BME280;70650;51.408;7.132;2023-09-12T09:36:53;100272.91;;;20.90;81.13
81181;BME280;70650;51.408;7.132;2023-09-12T09:39:20;100267.69;;;21.07;82.15
81181;BME280;70650;51.408;7.132;2023-09-12T09:45:16;100280.53;;;21.13;78.96
81181;BME280;70650;51.408;7.132;2023-09-12T09:50:08;100285.81;;;21.05;77.78
81181;BME280;70650;51.408;7.132;2023-09-12T09:52:38;100306.78;;;21.01;78.58
81181;BME280;70650;51.408;7.132;2023-09-12T09:55:13;100297.31;;;20.97;79.88
81181;BME280;70650;51.408;7.132;2023-09-12T09:57:40;100290.44;;;21.12;79.10
81181;BME280;70650;51.408;7.132;2023-09-12T10:00:06;100289.31;;;21.33;78.12
81181;BME280;70650;51.408;7.132;2023-09-12T10:02:38;100302.28;;;21.55;77.39
81181;BME280;70650;51.408;7.132;2023-09-12T10:05:05;100298.38;;;21.67;76.53
81181;BME280;70650;51.408;7.132;2023-09-12T10:07:33;100290.84;;;22.15;73.65
81181;BME280;70650;51.408;7.132;2023-09-12T10:10:02;100294.63;;;22.30;74.85
81181;BME280;70650;51.408;7.132;2023-09-12T10:12:44;100286.50;;;22.56;72.71
81181;BME280;70650;51.408;7.132;2023-09-12T10:15:14;100282.00;;;22.65;72.05
81181;BME280;70650;51.408;7.132;2023-09-12T10:17:43;100284.25;;;22.86;71.92
81181;BME280;70650;51.408;7.132;2023-09-12T10:20:15;100288.22;;;22.99;72.01
81181;BME280;70650;51.408;7.132;2023-09-12T10:22:52;100289.22;;;23.07;69.57
81181;BME280;70650;51.408;7.132;2023-09-12T10:25:21;100283.78;;;22.90;67.69
81181;BME280;70650;51.408;7.132;2023-09-12T10:27:49;100280.31;;;22.98;68.71
81181;BME280;70650;51.408;7.132;2023-09-12T10:30:16;100282.34;;;23.04;68.64
81181;BME280;70650;51.408;7.132;2023-09-12T10:32:45;100272.22;;;23.14;68.61
81181;BME280;70650;51.408;7.132;2023-09-12T10:35:11;100278.47;;;23.23;68.78
81181;BME280;70650;51.408;7.132;2023-09-12T10:37:37;100276.31;;;23.26;68.39
81181;BME280;70650;51.408;7.132;2023-09-12T10:40:08;100280.53;;;23.62;66.37
81181;BME280;70650;51.408;7.132;2023-09-12T10:42:34;100281.25;;;23.72;67.24
81181;BME280;70650;51.408;7.132;2023-09-12T10:45:01;100271.09;;;23.49;68.12
81181;BME280;70650;51.408;7.132;2023-09-12T10:47:29;100273.25;;;23.54;67.68
81181;BME280;70650;51.408;7.132;2023-09-12T10:49:56;100264.50;;;23.93;67.93
81181;BME280;70650;51.408;7.132;2023-09-12T10:52:26;100257.16;;;24.26;64.14
81181;BME280;70650;51.408;7.132;2023-09-12T10:54:53;100246.59;;;24.55;62.01
81181;BME280;70650;51.408;7.132;2023-09-12T10:57:19;100249.56;;;24.77;63.56
81181;BME280;70650;51.408;7.132;2023-09-12T11:02:28;100253.13;;;25.31;64.76
81181;BME280;70650;51.408;7.132;2023-09-12T11:05:02;100259.19;;;25.56;63.66
81181;BME280;70650;51.408;7.132;2023-09-12T11:12:42;100263.75;;;25.10;63.74
81181;BME280;70650;51.408;7.132;2023-09-12T11:15:10;100254.97;;;24.77;62.16
81181;BME280;70650;51.408;7.132;2023-09-12T11:17:40;100256.63;;;24.47;65.87
81181;BME280;70650;51.408;7.132;2023-09-12T11:20:07;100250.22;;;24.31;64.38
81181;BME280;70650;51.408;7.132;2023-09-12T11:22:36;100254.19;;;24.13;65.89
81181;BME280;70650;51.408;7.132;2023-09-12T11:25:05;100257.16;;;24.34;63.93
81181;BME280;70650;51.408;7.132;2023-09-12T11:28:02;100247.03;;;24.36;64.91
81181;BME280;70650;51.408;7.132;2023-09-12T11:30:29;100247.69;;;24.38;67.41
81181;BME280;70650;51.408;7.132;2023-09-12T11:32:58;100247.34;;;24.33;64.84
81181;BME280;70650;51.408;7.132;2023-09-12T11:35:26;100241.97;;;24.25;66.88
81181;BME280;70650;51.408;7.132;2023-09-12T11:37:55;100251.47;;;24.13;64.66
81181;BME280;70650;51.408;7.132;2023-09-12T11:42:59;100234.78;;;23.93;63.99
81181;BME280;70650;51.408;7.132;2023-09-12T11:45:25;100245.13;;;23.89;67.12
81181;BME280;70650;51.408;7.132;2023-09-12T11:47:51;100254.03;;;24.06;66.93
81181;BME280;70650;51.408;7.132;2023-09-12T11:50:30;100258.91;;;24.02;65.24
81181;BME280;70650;51.408;7.132;2023-09-12T11:55:31;100269.94;;;24.56;63.73
81181;BME280;70650;51.408;7.132;2023-09-12T11:57:57;100266.72;;;25.23;64.38
81181;BME280;70650;51.408;7.132;2023-09-12T12:00:22;100258.63;;;25.84;60.06
81181;BME280;70650;51.408;7.132;2023-09-12T12:02:49;100256.72;;;26.22;61.12
81181;BME280;70650;51.408;7.132;2023-09-12T12:05:14;100249.50;;;26.29;57.32
81181;BME280;70650;51.408;7.132;2023-09-12T12:07:40;100236.28;;;26.49;58.55
81181;BME280;70650;51.408;7.132;2023-09-12T12:10:08;100247.19;;;26.92;57.15
81181;BME280;70650;51.408;7.132;2023-09-12T12:12:33;100237.06;;;26.35;56.16
81181;BME280;70650;51.408;7.132;2023-09-12T12:14:59;100236.50;;;26.54;58.82
81181;BME280;70650;51.408;7.132;2023-09-12T12:17:24;100233.22;;;26.74;56.21
81181;BME280;70650;51.408;7.132;2023-09-12T12:19:49;100240.38;;;26.96;56.12
81181;BME280;70650;51.408;7.132;2023-09-12T12:22:15;100235.41;;;26.49;56.25
81181;BME280;70650;51.408;7.132;2023-09-12T12:24:47;100236.22;;;26.20;56.55
81181;BME280;70650;51.408;7.132;2023-09-12T12:27:15;100237.38;;;26.91;55.28
81181;BME280;70650;51.408;7.132;2023-09-12T12:29:41;100232.72;;;26.85;57.24
81181;BME280;70650;51.408;7.132;2023-09-12T12:32:10;100235.09;;;27.09;56.69
81181;BME280;70650;51.408;7.132;2023-09-12T12:34:36;100232.91;;;27.41;56.65
81181;BME280;70650;51.408;7.132;2023-09-12T12:37:03;100235.16;;;27.59;54.75
81181;BME280;70650;51.408;7.132;2023-09-12T12:39:31;100222.75;;;27.50;53.76
81181;BME280;70650;51.408;7.132;2023-09-12T12:41:56;100218.94;;;27.01;56.10
81181;BME280;70650;51.408;7.132;2023-09-12T12:44:22;100210.03;;;27.29;55.94
81181;BME280;70650;51.408;7.132;2023-09-12T12:46:52;100211.88;;;27.50;55.24
81181;BME280;70650;51.408;7.132;2023-09-12T12:49:20;100212.75;;;27.78;52.74
81181;BME280;70650;51.408;7.132;2023-09-12T12:51:47;100218.63;;;28.10;53.61
81181;BME280;70650;51.408;7.132;2023-09-12T12:54:13;100203.97;;;28.45;53.64
81181;BME280;70650;51.408;7.132;2023-09-12T12:56:38;100203.94;;;28.39;52.09
81181;BME280;70650;51.408;7.132;2023-09-12T12:59:06;100198.19;;;28.62;52.12
81181;BME280;70650;51.408;7.132;2023-09-12T13:01:37;100203.91;;;27.97;53.71
81181;BME280;70650;51.408;7.132;2023-09-12T13:04:07;100203.09;;;27.47;54.08
81181;BME280;70650;51.408;7.132;2023-09-12T13:06:33;100197.84;;;28.02;52.87
81181;BME280;70650;51.408;7.132;2023-09-12T13:09:02;100190.59;;;28.50;51.80
81181;BME280;70650;51.408;7.132;2023-09-12T13:11:30;100189.22;;;28.74;51.02
81181;BME280;70650;51.408;7.132;2023-09-12T13:13:56;100183.88;;;29.08;50.21